createdAt,value
2023-02-03T00:01:02.466Z,101732.56
2023-02-03T00:03:32.604Z,101738.72
2023-02-03T00:06:04.341Z,101733.50
2023-02-03T00:08:34.617Z,101741.97
2023-02-03T00:11:05.401Z,101741.69
2023-02-03T00:13:36.035Z,101755.25
2023-02-03T00:16:09.392Z,101749.06
2023-02-03T00:18:39.613Z,101755.06
2023-02-03T00:21:10.951Z,101735.88
2023-02-03T00:23:44.099Z,101747.31
2023-02-03T00:26:16.790Z,101745.47
2023-02-03T00:28:48.004Z,101742.59
2023-02-03T00:31:21.767Z,101739.22
2023-02-03T00:33:57.321Z,101741.88
2023-02-03T00:36:27.990Z,101741.63
2023-02-03T00:38:58.366Z,101730.44
2023-02-03T00:41:31.310Z,101741.63
2023-02-03T00:44:01.421Z,101736.59
2023-02-03T00:46:31.560Z,101737.22
2023-02-03T00:49:02.250Z,101736.19
2023-02-03T00:51:32.941Z,101736.19
2023-02-03T00:57:53.430Z,101729.31
2023-02-03T01:00:24.296Z,101723.97
2023-02-03T01:02:54.770Z,101726.03
2023-02-03T01:05:24.904Z,101723.47
2023-02-03T01:07:55.028Z,101717.41
2023-02-03T01:10:25.477Z,101694.66
2023-02-03T01:12:55.744Z,101694.91
2023-02-03T01:15:25.987Z,101703.16
2023-02-03T01:17:56.154Z,101696.53
2023-02-03T01:20:26.616Z,101689.94
2023-02-03T01:22:57.481Z,101689.22
2023-02-03T01:29:08.891Z,101675.78
2023-02-03T01:31:42.504Z,101662.78
2023-02-03T01:34:16.565Z,101660.41
2023-02-03T01:36:46.981Z,101649.97
2023-02-03T01:39:17.273Z,101637.84
2023-02-03T01:41:47.330Z,101652.78
2023-02-03T01:44:42.082Z,101648.56
2023-02-03T01:47:24.328Z,101657.25
2023-02-03T01:50:14.063Z,101658.94
2023-02-03T01:52:47.266Z,101646.94
2023-02-03T01:55:22.775Z,101646.78
2023-02-03T01:57:59.110Z,101646.88
2023-02-03T02:00:29.620Z,101648.56
2023-02-03T02:03:03.268Z,101649.53
2023-02-03T02:05:43.688Z,101641.84
2023-02-03T02:08:16.021Z,101635.09
2023-02-03T02:10:46.283Z,101636.84
2023-02-03T02:13:18.482Z,101629.16
2023-02-03T02:16:05.220Z,101634.28
2023-02-03T02:18:50.499Z,101633.56
2023-02-03T02:21:49.113Z,101616.00
2023-02-03T02:24:34.573Z,101624.91
2023-02-03T02:27:20.233Z,101623.16
2023-02-03T02:30:20.020Z,101613.56
2023-02-03T02:33:21.172Z,101610.28
2023-02-03T02:36:14.046Z,101604.19
2023-02-03T02:38:57.913Z,101598.13
2023-02-03T02:41:46.531Z,101591.09
2023-02-03T02:44:23.763Z,101595.50
2023-02-03T02:46:56.576Z,101584.44
2023-02-03T02:49:54.857Z,101577.56
2023-02-03T02:52:29.163Z,101584.34
2023-02-03T02:55:05.818Z,101582.63
2023-02-03T02:57:37.837Z,101571.09
2023-02-03T03:00:08.919Z,101586.88
2023-02-03T03:02:39.638Z,101583.56
2023-02-03T03:05:12.429Z,101587.81
2023-02-03T03:07:49.773Z,101587.88
2023-02-03T03:10:24.862Z,101574.94
2023-02-03T03:12:59.708Z,101582.03
2023-02-03T03:15:32.885Z,101571.78
2023-02-03T03:18:25.713Z,101571.72
2023-02-03T03:20:59.718Z,101571.72
2023-02-03T03:23:33.616Z,101576.84
2023-02-03T03:26:18.122Z,101583.63
2023-02-03T03:29:01.023Z,101569.00
2023-02-03T03:31:31.493Z,101567.38
2023-02-03T03:34:02.821Z,101576.84
2023-02-03T03:36:59.763Z,101564.81
2023-02-03T03:39:56.308Z,101563.09
2023-02-03T03:42:46.532Z,101556.03
2023-02-03T03:45:59.844Z,101553.41
2023-02-03T03:48:48.147Z,101548.16
2023-02-03T03:51:33.784Z,101546.22
2023-02-03T03:54:09.940Z,101538.50
2023-02-03T03:56:47.014Z,101546.19
2023-02-03T03:59:19.093Z,101543.63
2023-02-03T04:01:51.184Z,101537.38
2023-02-03T04:04:24.534Z,101540.00
2023-02-03T04:06:55.096Z,101538.25
2023-02-03T04:09:25.640Z,101520.31
2023-02-03T04:12:01.660Z,101520.50
2023-02-03T04:14:39.970Z,101523.91
2023-02-03T04:17:10.150Z,101518.72
2023-02-03T04:19:40.408Z,101497.22
2023-02-03T04:22:10.617Z,101499.03
2023-02-03T04:24:40.718Z,101502.66
2023-02-03T04:27:11.196Z,101512.06
2023-02-03T04:29:41.239Z,101513.03
2023-02-03T04:32:11.549Z,101508.00
2023-02-03T04:34:41.695Z,101500.97
2023-02-03T04:37:12.052Z,101500.88
2023-02-03T04:39:42.296Z,101496.56
2023-02-03T04:42:12.428Z,101491.44
2023-02-03T04:44:42.624Z,101474.91
2023-02-03T04:47:12.742Z,101486.34
2023-02-03T04:49:42.958Z,101479.44
2023-02-03T04:52:13.343Z,101477.09
2023-02-03T04:54:43.548Z,101477.91
2023-02-03T04:57:13.649Z,101471.91
2023-02-03T04:59:43.854Z,101463.28
2023-02-03T05:02:14.136Z,101458.94
2023-02-03T05:04:44.412Z,101454.00
2023-02-03T05:07:14.956Z,101444.53
2023-02-03T05:09:45.080Z,101433.13
2023-02-03T05:12:15.293Z,101437.81
2023-02-03T05:14:45.411Z,101429.84
2023-02-03T05:17:15.573Z,101417.34
2023-02-03T05:19:45.707Z,101418.22
2023-02-03T05:22:15.858Z,101416.50
2023-02-03T05:24:46.522Z,101409.44
2023-02-03T05:27:16.592Z,101409.56
2023-02-03T05:29:46.744Z,101398.47
2023-02-03T05:32:16.832Z,101387.28
2023-02-03T05:34:47.524Z,101382.00
2023-02-03T05:37:17.690Z,101378.72
2023-02-03T05:39:47.878Z,101380.53
2023-02-03T05:42:18.089Z,101360.50
2023-02-03T05:44:48.125Z,101373.69
2023-02-03T05:47:18.284Z,101372.78
2023-02-03T05:49:48.431Z,101372.00
2023-02-03T05:52:18.540Z,101370.09
2023-02-03T05:54:48.685Z,101365.84
2023-02-03T05:57:19.449Z,101353.69
2023-02-03T05:59:50.072Z,101346.84
2023-02-03T06:02:20.238Z,101347.69
2023-02-03T06:04:50.543Z,101335.56
2023-02-03T06:07:20.880Z,101339.16
2023-02-03T06:09:51.001Z,101339.16
2023-02-03T06:12:21.286Z,101334.84
2023-02-03T06:14:51.491Z,101332.22
2023-02-03T06:17:21.958Z,101333.75
2023-02-03T06:19:52.162Z,101320.91
2023-02-03T06:22:22.505Z,101313.13
2023-02-03T06:24:52.681Z,101312.41
2023-02-03T06:27:22.956Z,101300.25
2023-02-03T06:29:53.132Z,101301.16
2023-02-03T06:32:23.298Z,101287.13
2023-02-03T06:34:53.371Z,101302.81
2023-02-03T06:37:24.858Z,101279.66
2023-02-03T06:39:55.101Z,101285.84
2023-02-03T06:42:25.208Z,101273.78
2023-02-03T06:44:55.431Z,101262.56
2023-02-03T06:47:25.577Z,101264.44
2023-02-03T06:49:58.343Z,101264.63
2023-02-03T06:52:28.452Z,101251.84
2023-02-03T06:54:58.593Z,101252.88
2023-02-03T06:57:28.695Z,101237.44
2023-02-03T06:59:58.927Z,101220.91
2023-02-03T07:02:29.093Z,101226.53
2023-02-03T07:04:59.223Z,101222.28
2023-02-03T07:07:32.540Z,101211.72
2023-02-03T07:10:03.131Z,101224.09
2023-02-03T07:12:33.249Z,101217.44
2023-02-03T07:15:04.906Z,101209.88
2023-02-03T07:17:35.716Z,101208.41
2023-02-03T07:20:11.868Z,101195.63
2023-02-03T07:22:44.169Z,101190.59
2023-02-03T07:25:15.147Z,101195.66
2023-02-03T07:27:45.625Z,101179.31
2023-02-03T07:30:16.070Z,101185.69
2023-02-03T07:32:51.457Z,101170.06
2023-02-03T07:35:21.838Z,101173.94
2023-02-03T07:37:52.060Z,101167.31
2023-02-03T07:40:22.160Z,101175.06
2023-02-03T07:42:52.379Z,101159.59
2023-02-03T07:45:24.854Z,101158.66
2023-02-03T07:47:55.069Z,101145.47
2023-02-03T07:50:25.464Z,101140.38
2023-02-03T07:52:55.788Z,101133.66
2023-02-03T07:55:26.470Z,101127.25
2023-02-03T07:57:58.213Z,101126.53
2023-02-03T08:00:28.703Z,101118.16
2023-02-03T08:02:59.161Z,101109.63
2023-02-03T08:05:30.411Z,101100.44
2023-02-03T08:08:00.621Z,101082.38
2023-02-03T08:10:31.310Z,101094.81
2023-02-03T08:13:01.705Z,101077.69
2023-02-03T08:15:31.945Z,101070.94
2023-02-03T08:18:02.101Z,101074.78
2023-02-03T08:20:32.184Z,101055.75
2023-02-03T08:23:02.476Z,101056.91
2023-02-03T08:25:41.644Z,101055.28
2023-02-03T08:28:23.716Z,101058.09
2023-02-03T08:30:57.851Z,101048.81
2023-02-03T08:36:37.586Z,101029.59
2023-02-03T08:39:31.362Z,101036.59
2023-02-03T08:42:18.690Z,101033.94
2023-02-03T08:45:06.459Z,101014.53
2023-02-03T08:47:52.278Z,101008.81
2023-02-03T08:50:22.363Z,101002.75
2023-02-03T08:52:55.374Z,100999.34
2023-02-03T08:58:43.747Z,100980.13
2023-02-03T09:01:22.471Z,100968.06
2023-02-03T09:03:52.776Z,100971.78
2023-02-03T09:06:26.344Z,100951.88
2023-02-03T09:09:03.834Z,100961.63
2023-02-03T09:12:05.469Z,100953.19
2023-02-03T09:14:58.975Z,100936.69
2023-02-03T09:17:35.018Z,100928.53
2023-02-03T09:20:05.805Z,100933.72
2023-02-03T09:22:35.998Z,100927.00
2023-02-03T09:25:07.514Z,100924.34
2023-02-03T09:27:37.783Z,100924.22
2023-02-03T09:30:08.530Z,100926.03
2023-02-03T09:32:38.667Z,100903.75
2023-02-03T09:35:08.892Z,100903.00
2023-02-03T09:37:39.085Z,100892.78
2023-02-03T09:40:20.750Z,100884.28
2023-02-03T09:43:13.020Z,100883.56
2023-02-03T09:45:43.123Z,100867.94
2023-02-03T09:48:21.507Z,100865.50
2023-02-03T09:50:53.400Z,100856.19
2023-02-03T09:53:45.861Z,100858.63
2023-02-03T09:56:26.345Z,100835.53
2023-02-03T09:58:56.556Z,100819.34
2023-02-03T10:01:34.013Z,100826.34
2023-02-03T10:04:10.332Z,100823.09
2023-02-03T10:06:46.325Z,100812.78
2023-02-03T10:09:53.965Z,100807.06
2023-02-03T10:12:41.354Z,100800.25
2023-02-03T10:15:40.971Z,100781.69
2023-02-03T10:18:17.660Z,100771.50
2023-02-03T10:20:54.325Z,100762.16
2023-02-03T10:23:27.719Z,100756.25
2023-02-03T10:26:01.490Z,100755.53
2023-02-03T10:28:39.645Z,100740.13
2023-02-03T10:31:20.346Z,100735.88
2023-02-03T10:34:24.927Z,100732.44
2023-02-03T10:37:03.571Z,100717.84
2023-02-03T10:39:47.764Z,100707.38
2023-02-03T10:42:18.773Z,100700.69
2023-02-03T10:44:54.571Z,100703.09
2023-02-03T10:47:35.031Z,100695.19
2023-02-03T10:50:14.268Z,100690.09
2023-02-03T10:52:44.721Z,100686.78
2023-02-03T10:55:27.072Z,100685.94
2023-02-03T10:57:58.226Z,100673.84
2023-02-03T11:00:36.244Z,100666.91
2023-02-03T11:03:22.267Z,100649.66
2023-02-03T11:06:05.340Z,100648.78
2023-02-03T11:08:48.028Z,100637.63
2023-02-03T11:11:26.981Z,100641.13
2023-02-03T11:14:05.661Z,100626.59
2023-02-03T11:16:39.246Z,100617.09
2023-02-03T11:19:21.971Z,100607.00
2023-02-03T11:21:56.675Z,100607.06
2023-02-03T11:24:41.333Z,100589.03
2023-02-03T11:27:18.617Z,100580.28
2023-02-03T11:29:51.715Z,100589.03
2023-02-03T11:32:37.892Z,100547.41
2023-02-03T11:35:16.487Z,100559.63
2023-02-03T11:37:58.001Z,100560.44
2023-02-03T11:40:31.192Z,100545.91
2023-02-03T11:43:06.457Z,100529.69
2023-02-03T11:45:42.528Z,100528.22
2023-02-03T11:48:34.189Z,100522.41
2023-02-03T11:51:40.652Z,100523.34
2023-02-03T11:54:26.438Z,100515.75
2023-02-03T11:57:25.214Z,100509.72
2023-02-03T12:00:31.433Z,100498.53
2023-02-03T12:03:13.138Z,100489.81
2023-02-03T12:06:15.735Z,100484.50
2023-02-03T12:09:18.102Z,100473.31
2023-02-03T12:12:00.457Z,100473.34
2023-02-03T12:14:54.953Z,100463.91
2023-02-03T12:17:34.169Z,100462.22
2023-02-03T12:20:07.260Z,100452.81
2023-02-03T12:22:48.652Z,100449.41
2023-02-03T12:25:50.636Z,100444.38
2023-02-03T12:28:51.244Z,100438.47
2023-02-03T12:31:35.008Z,100436.78
2023-02-03T12:34:17.856Z,100431.69
2023-02-03T12:37:08.225Z,100420.63
2023-02-03T12:39:44.785Z,100425.75
2023-02-03T12:42:24.790Z,100414.56
2023-02-03T12:45:12.439Z,100420.56
2023-02-03T12:47:51.521Z,100413.66
2023-02-03T12:50:25.400Z,100417.25
2023-02-03T12:53:14.634Z,100413.84
2023-02-03T12:55:52.072Z,100409.50
2023-02-03T12:58:28.743Z,100406.94
2023-02-03T13:01:12.792Z,100401.69
2023-02-03T13:03:49.381Z,100400.91
2023-02-03T13:06:38.115Z,100400.00
2023-02-03T13:09:45.789Z,100389.63
2023-02-03T13:12:36.995Z,100407.56
2023-02-03T13:15:37.806Z,100387.78
2023-02-03T13:18:33.799Z,100398.91
2023-02-03T13:21:04.825Z,100395.34
2023-02-03T13:23:35.102Z,100380.88
2023-02-03T13:26:32.696Z,100383.50
2023-02-03T13:29:08.894Z,100382.72
2023-02-03T13:31:39.064Z,100378.38
2023-02-03T13:34:29.545Z,100374.13
2023-02-03T13:37:46.539Z,100362.94
2023-02-03T13:40:50.897Z,100372.34
2023-02-03T13:43:38.090Z,100372.34
2023-02-03T13:46:22.517Z,100357.75
2023-02-03T13:48:54.626Z,100358.63
2023-02-03T13:51:30.062Z,100353.50
2023-02-03T13:54:08.116Z,100339.00
2023-02-03T13:56:39.572Z,100337.31
2023-02-03T13:59:15.692Z,100335.66
2023-02-03T14:01:46.347Z,100333.03
2023-02-03T14:04:25.811Z,100325.41
2023-02-03T14:06:59.053Z,100309.09
2023-02-03T14:09:34.407Z,100327.16
2023-02-03T14:12:30.989Z,100315.13
2023-02-03T14:15:16.591Z,100306.53
2023-02-03T14:17:46.711Z,100303.06
2023-02-03T14:20:25.816Z,100307.34
2023-02-03T14:23:34.682Z,100306.44
2023-02-03T14:26:05.253Z,100305.44
2023-02-03T14:28:46.658Z,100281.97
2023-02-03T14:31:25.372Z,100300.16
2023-02-03T14:34:07.246Z,100289.59
2023-02-03T14:36:43.110Z,100294.78
2023-02-03T14:39:22.680Z,100294.84
2023-02-03T14:42:03.001Z,100288.03
2023-02-03T14:45:04.842Z,100299.94
2023-02-03T14:47:50.077Z,100298.13
2023-02-03T14:50:29.125Z,100292.06
2023-02-03T14:53:14.313Z,100299.69
2023-02-03T14:55:51.973Z,100304.81
2023-02-03T14:58:43.954Z,100305.59
2023-02-03T15:01:47.167Z,100318.41
2023-02-03T15:04:17.297Z,100307.19
2023-02-03T15:06:50.128Z,100319.75
2023-02-03T15:09:26.026Z,100324.09
2023-02-03T15:11:56.287Z,100322.38
2023-02-03T15:14:31.657Z,100324.94
2023-02-03T15:17:13.722Z,100323.22
2023-02-03T15:19:45.052Z,100329.16
2023-02-03T15:22:27.538Z,100324.81
2023-02-03T15:25:00.894Z,100322.97
2023-02-03T15:27:33.179Z,100336.72
2023-02-03T15:30:17.003Z,100341.84
2023-02-03T15:33:04.480Z,100341.84
2023-02-03T15:35:38.046Z,100330.50
2023-02-03T15:38:42.929Z,100349.59
2023-02-03T15:41:25.646Z,100337.38
2023-02-03T15:44:15.133Z,100348.47
2023-02-03T15:46:52.440Z,100362.19
2023-02-03T15:49:30.711Z,100364.75
2023-02-03T15:52:24.692Z,100367.25
2023-02-03T15:55:07.051Z,100366.47
2023-02-03T15:57:39.031Z,100384.38
2023-02-03T16:00:26.356Z,100391.28
2023-02-03T16:03:05.551Z,100389.59
2023-02-03T16:05:39.776Z,100392.09
2023-02-03T16:08:29.516Z,100382.72
2023-02-03T16:10:59.836Z,100406.72
2023-02-03T16:13:32.569Z,100402.44
2023-02-03T16:16:05.981Z,100412.78
2023-02-03T16:18:36.915Z,100416.25
2023-02-03T16:21:22.576Z,100419.69
2023-02-03T16:23:52.885Z,100408.63
2023-02-03T16:26:26.393Z,100411.91
2023-02-03T16:29:28.691Z,100420.59
2023-02-03T16:32:17.779Z,100407.78
2023-02-03T16:35:06.465Z,100412.91
2023-02-03T16:38:03.455Z,100407.84
2023-02-03T16:40:52.042Z,100416.47
2023-02-03T16:43:40.727Z,100417.13
2023-02-03T16:46:30.844Z,100432.44
2023-02-03T16:49:19.440Z,100448.69
2023-02-03T16:51:49.565Z,100455.63
2023-02-03T16:54:19.723Z,100448.84
2023-02-03T16:56:51.600Z,100447.16
2023-02-03T16:59:28.280Z,100456.66
2023-02-03T17:02:16.409Z,100463.56
2023-02-03T17:04:46.591Z,100466.91
2023-02-03T17:07:16.759Z,100470.47
2023-02-03T17:09:46.945Z,100469.47
2023-02-03T17:12:17.041Z,100479.78
2023-02-03T17:14:47.191Z,100479.78
2023-02-03T17:17:17.251Z,100485.78
2023-02-03T17:19:47.396Z,100487.47
2023-02-03T17:22:17.707Z,100486.63
2023-02-03T17:24:47.987Z,100485.63
2023-02-03T17:27:18.215Z,100471.69
2023-02-03T17:29:48.519Z,100482.28
2023-02-03T17:32:18.735Z,100494.31
2023-02-03T17:34:49.027Z,100511.34
2023-02-03T17:37:19.234Z,100508.63
2023-02-03T17:54:09.349Z,100528.56
2023-02-03T17:56:39.643Z,100540.53
2023-02-03T17:59:09.842Z,100532.84
2023-02-03T18:01:40.319Z,100538.88
2023-02-03T18:04:11.035Z,100540.69
2023-02-03T18:06:41.182Z,100543.22
2023-02-03T18:09:14.159Z,100547.50
2023-02-03T18:11:46.025Z,100545.06
2023-02-03T18:14:16.881Z,100545.00
2023-02-03T18:16:48.277Z,100538.16
2023-02-03T18:19:18.422Z,100544.25
2023-02-03T18:21:48.749Z,100548.63
2023-02-03T18:24:22.520Z,100560.38
2023-02-03T18:26:55.755Z,100571.69
2023-02-03T18:29:29.192Z,100578.38
2023-02-03T18:32:02.531Z,100592.03
2023-02-03T18:34:32.610Z,100595.47
2023-02-03T18:37:02.893Z,100600.59
2023-02-03T18:39:33.418Z,100606.66
2023-02-03T18:42:04.102Z,100611.78
2023-02-03T18:44:34.352Z,100627.44
2023-02-03T18:47:07.986Z,100618.81
2023-02-03T18:49:39.465Z,100635.81
2023-02-03T18:52:09.641Z,100634.88
2023-02-03T18:54:39.815Z,100652.88
2023-02-03T18:57:14.108Z,100650.25
2023-02-03T18:59:44.772Z,100653.81
2023-02-03T19:02:15.069Z,100668.34
2023-02-03T19:04:45.338Z,100675.88
2023-02-03T19:07:16.089Z,100672.69
2023-02-03T19:09:46.292Z,100679.38
2023-02-03T19:12:23.463Z,100703.44
2023-02-03T19:14:54.798Z,100722.25
2023-02-03T19:17:27.528Z,100721.16
2023-02-03T19:19:57.672Z,100727.13
2023-02-03T19:22:27.778Z,100726.97
2023-02-03T19:24:59.169Z,100739.84
2023-02-03T19:27:30.122Z,100754.31
2023-02-03T19:30:00.610Z,100740.34
2023-02-03T19:32:31.736Z,100755.09
2023-02-03T19:35:01.951Z,100767.09
2023-02-03T19:37:32.204Z,100762.59
2023-02-03T19:40:02.331Z,100785.84
2023-02-03T19:42:32.592Z,100778.16
2023-02-03T19:45:02.827Z,100783.34
2023-02-03T19:47:33.901Z,100778.81
2023-02-03T19:50:04.824Z,100803.13
2023-02-03T19:52:35.018Z,100815.19
2023-02-03T19:55:05.675Z,100813.47
2023-02-03T19:57:36.170Z,100822.00
2023-02-03T20:00:07.335Z,100813.22
2023-02-03T20:02:38.512Z,100829.47
2023-02-03T20:05:09.055Z,100838.84
2023-02-03T20:07:39.303Z,100839.69
2023-02-03T20:10:10.018Z,100844.72
2023-02-03T20:12:41.805Z,100855.16
2023-02-03T20:15:12.095Z,100855.06
2023-02-03T20:17:43.088Z,100866.25
2023-02-03T20:20:13.350Z,100874.75
2023-02-03T20:22:43.502Z,100887.44
2023-02-03T20:25:14.357Z,100909.53
2023-02-03T20:27:44.670Z,100908.63
2023-02-03T20:30:14.968Z,100909.47
2023-02-03T20:32:45.118Z,100926.66
2023-02-03T20:35:15.315Z,100944.66
2023-02-03T20:37:45.578Z,100958.91
2023-02-03T20:40:17.456Z,100965.16
2023-02-03T20:42:47.623Z,100985.69
2023-02-03T20:45:19.380Z,100996.66
2023-02-03T20:47:50.525Z,100995.66
2023-02-03T20:50:28.904Z,101014.63
2023-02-03T20:53:01.915Z,101014.38
2023-02-03T20:55:32.094Z,101018.63
2023-02-03T20:58:03.071Z,101019.38
2023-02-03T21:00:33.210Z,101038.38
2023-02-03T21:03:21.973Z,101063.25
2023-02-03T21:05:52.108Z,101083.53
2023-02-03T21:08:22.945Z,101076.69
2023-02-03T21:10:53.751Z,101083.00
2023-02-03T21:13:29.941Z,101095.81
2023-02-03T21:16:04.142Z,101094.88
2023-02-03T21:18:47.761Z,101106.00
2023-02-03T21:21:28.080Z,101119.66
2023-02-03T21:23:58.227Z,101117.78
2023-02-03T21:26:31.283Z,101138.44
2023-02-03T21:29:02.743Z,101131.31
2023-02-03T21:31:34.895Z,101144.84
2023-02-03T21:34:34.034Z,101150.72
2023-02-03T21:37:37.186Z,101163.66
2023-02-03T21:40:31.881Z,101170.34
2023-02-03T21:43:05.146Z,101181.47
2023-02-03T21:45:38.657Z,101179.72
2023-02-03T21:48:25.348Z,101185.53
2023-02-03T21:50:59.762Z,101194.69
2023-02-03T21:53:36.149Z,101206.56
2023-02-03T21:56:40.200Z,101202.47
2023-02-03T21:59:19.169Z,101211.22
2023-02-03T22:01:49.899Z,101210.38
2023-02-03T22:04:20.249Z,101205.94
2023-02-03T22:06:51.011Z,101225.94
2023-02-03T22:09:24.227Z,101215.38
2023-02-03T22:11:54.347Z,101233.63
2023-02-03T22:14:24.708Z,101229.38
2023-02-03T22:17:00.227Z,101236.06
2023-02-03T22:19:32.420Z,101237.06
2023-02-03T22:22:02.555Z,101240.44
2023-02-03T22:24:32.783Z,101250.56
2023-02-03T22:27:02.860Z,101266.06
2023-02-03T22:29:33.389Z,101276.19
2023-02-03T22:32:03.805Z,101291.59
2023-02-03T22:34:34.025Z,101296.59
2023-02-03T22:37:04.341Z,101308.53
2023-02-03T22:39:34.552Z,101310.03
2023-02-03T22:42:04.796Z,101318.63
2023-02-03T22:44:35.068Z,101333.13
2023-02-03T22:47:05.268Z,101342.59
2023-02-03T22:49:35.414Z,101347.31
2023-02-03T22:52:05.701Z,101361.84
2023-02-03T22:54:36.993Z,101367.03
2023-02-03T22:57:07.284Z,101393.66
2023-02-03T22:59:37.530Z,101398.84
2023-02-03T23:02:08.289Z,101408.16
2023-02-03T23:04:38.567Z,101398.56
2023-02-03T23:07:08.792Z,101419.44
2023-02-03T23:09:39.084Z,101414.22
2023-02-03T23:12:09.777Z,101421.03
2023-02-03T23:14:39.944Z,101421.84
2023-02-03T23:17:10.107Z,101430.22
2023-02-03T23:19:40.176Z,101428.31
2023-02-03T23:22:10.756Z,101421.28
2023-02-03T23:24:41.049Z,101435.25
2023-02-03T23:27:11.969Z,101448.13
2023-02-03T23:29:43.253Z,101454.25
2023-02-03T23:32:13.471Z,101450.53
2023-02-03T23:35:02.084Z,101474.53
2023-02-03T23:37:32.645Z,101476.00
2023-02-03T23:40:03.805Z,101502.50
2023-02-03T23:42:33.958Z,101506.56
2023-02-03T23:45:08.197Z,101520.50
2023-02-03T23:47:42.855Z,101515.94
2023-02-03T23:50:16.962Z,101531.53
2023-02-03T23:52:47.964Z,101533.88
2023-02-03T23:55:20.035Z,101537.03
2023-02-03T23:57:50.827Z,101549.75
